Rollins, MT

7:57 PM MDT on September 16, 2014 (GMT -0600)
640 Capistrano NW | Change Station
CLOSE
Current Station
Personal Weather Station
Location: Kalispell, MT
Elevation: 2945 ft
Nearby Weather Stations

Elev 2945 ft 48.26 °N, 114.24 °W | Updated 9 seconds ago

Partly Cloudy
Partly Cloudy
65.0 °F
Feels Like 65.0 °F
N
2.0
Wind Variable Wind from SW
Gusts 2.0 mph

Today
High -- | Low -- °F
--% Chance of Precip.
Yesterday
High -- | Low -- °F
Precip. -- in
7:15 AM 7:47 PM
Last Quarter, 40% visible
Pressure 29.88 in
Visibility 9.0 miles
Clouds Clear
Dew Point 47 °F
Humidity 52%
Rainfall 0.00 in
Snow Depth 0 in , 0 in , 0 in
UV 0 out of 12
Pollen 2.30 out of 12
Air Quality Not available.
Flu Activity Not available.
METAR KMSO 170053Z AUTO 31004KT 9SM CLR 23/07 A2991 RMK AO2 SLP118 T02330067 TSNO

More Conditions Fewer Conditions

Pressure 29.88 in
Visibility 9.0 miles
Clouds Clear
Dew Point 47 °F
Humidity 52%
Rainfall 0.00 in
Snow Depth 0 in , 0 in , 0 in
UV 0 out of 12
Pollen 2.30 out of 12
Air Quality Not available.
Flu Activity Not available.
METAR KMSO 170053Z AUTO 31004KT 9SM CLR 23/07 A2991 RMK AO2 SLP118 T02330067 TSNO

More Conditions Fewer Conditions

10-Day Weather Forecast

Almanac

Astronomy

Sep. 16, 2014 Rise Set
Actual Time 7:15 AM MDT 7:47 PM MDT
Civil Twilight 6:44 AM MDT 8:18 PM MDT
Nautical Twilight 6:07 AM MDT 8:54 PM MDT
Astronomical Twilight 5:28 AM MDT 9:33 PM MDT
Moon 12:09 AM MDT (9/16) 3:33 PM MDT (9/16)
Length of Visible Light 13h 33m
Length of Day
12h 31m
Tomorrow will be 3m 27s shorter.
Last Quarter, 40% of the Moon is Illuminated
Today
Last Quarter
Sep 24
New
Oct 1
First Quarter
Oct 8
Full
Oct 15
Last Quarter

Today's Extremes

State Highs State Lows

Community

WunderPhotos

Upload Photos

1,753,945 photos uploaded!

Nearby

Snow Depth

Station Depth Elevation
Shower Falls 0 in 8100 ft
Porcupine 0 in 6500 ft
Lubrecht Flume 0 in 4680 ft
Tizer Basin 0 in 6840 ft
Garver Creek 0 in 4250 ft

Earthquake Activity

City Distance Mag. Time & Date
No recent earthquake activity has been reported nearby.
Minimum magnitude displayed is 2.5.

Coastal Water Temperatures

Place Temperature
No Stations Reporting

Nearby Weather Stations